Time;durP1;ratioP1;P1;durP2;ratioP2;P2;SDS_P1;SDS_P2;PMS_P1;PMS_P2;Temp;Humidity;BMP_temperature;BMP_pressure;BME280_temperature;BME280_humidity;BME280_pressure;Samples;Min_cycle;Max_cycle;Signal;HPM_P1;HPM_P2
2022/02/04 00:23:46;;;;;;;16.10;11.57;;;8.60;99.90;;;;;;5022661;28;20167;-87
2022/02/04 00:26:38;;;;;;;17.97;12.67;;;8.50;99.90;;;;;;5032474;28;20243;-87
2022/02/04 00:29:16;;;;;;;16.57;11.53;;;8.50;99.90;;;;;;5034742;28;20166;-87
2022/02/04 00:31:50;;;;;;;15.00;11.60;;;8.60;99.90;;;;;;5022278;28;20204;-87
2022/02/04 00:34:19;;;;;;;15.20;10.87;;;8.70;99.90;;;;;;5024096;28;20202;-88
2022/02/04 00:37:02;;;;;;;16.67;11.43;;;8.70;99.90;;;;;;5024356;28;20169;-87
2022/02/04 00:39:43;;;;;;;12.43;10.23;;;8.60;99.90;;;;;;5022977;28;20666;-86
2022/02/04 00:42:14;;;;;;;13.40;10.60;;;8.60;99.90;;;;;;5029772;28;20170;-91
2022/02/04 00:44:42;;;;;;;14.70;10.97;;;8.50;99.90;;;;;;5040302;28;20201;-88
2022/02/04 00:47:18;;;;;;;14.83;10.83;;;8.60;99.90;;;;;;5040067;28;20166;-90
2022/02/04 00:50:00;;;;;;;13.80;9.93;;;8.70;99.90;;;;;;5038337;28;20185;-88
2022/02/04 00:52:42;;;;;;;12.40;9.60;;;8.60;99.90;;;;;;5026669;28;20167;-87
2022/02/04 01:06:22;;;;;;;14.83;9.90;;;8.60;99.90;;;;;;5023258;28;20164;-87
2022/02/04 01:26:03;;;;;;;11.10;7.83;;;8.60;99.90;;;;;;5020342;28;20181;-87
2022/02/04 01:28:31;;;;;;;9.50;7.80;;;8.60;99.90;;;;;;5018139;28;20171;-87
2022/02/04 01:30:57;;;;;;;12.53;8.73;;;8.70;99.90;;;;;;5018787;28;20238;-88
2022/02/04 01:33:23;;;;;;;11.00;8.70;;;8.70;99.90;;;;;;5017519;28;20773;-88
2022/02/04 01:35:50;;;;;;;11.37;8.70;;;8.80;99.90;;;;;;5021353;28;20178;-87
2022/02/04 01:38:15;;;;;;;10.33;7.97;;;8.70;99.90;;;;;;5026999;28;20213;-86
2022/02/04 01:40:41;;;;;;;9.53;7.50;;;8.70;99.90;;;;;;5035770;28;20167;-87
2022/02/04 01:43:07;;;;;;;10.80;8.03;;;8.70;99.90;;;;;;5037117;28;20199;-86
2022/02/04 01:45:34;;;;;;;10.37;7.97;;;8.80;99.90;;;;;;5039049;28;20167;-86
2022/02/04 01:48:13;;;;;;;9.97;6.57;;;8.80;99.90;;;;;;5038767;28;20190;-87
2022/02/04 01:50:54;;;;;;;10.03;6.83;;;8.70;99.90;;;;;;5034771;28;20277;-88
2022/02/04 01:53:28;;;;;;;8.27;5.80;;;8.80;99.90;;;;;;5020296;28;20218;-88
2022/02/04 01:56:13;;;;;;;8.10;6.30;;;8.70;99.90;;;;;;5018184;28;20178;-87
2022/02/04 01:58:47;;;;;;;8.43;5.53;;;8.70;99.90;;;;;;5016814;28;20182;-88
2022/02/04 02:01:13;;;;;;;8.60;6.30;;;8.80;99.90;;;;;;5015978;28;20288;-87
2022/02/04 02:03:38;;;;;;;8.73;6.57;;;8.80;99.90;;;;;;5016892;28;20965;-85
2022/02/04 02:06:09;;;;;;;6.93;5.70;;;8.80;99.90;;;;;;5018470;28;20167;-88
2022/02/04 02:08:40;;;;;;;7.00;5.57;;;8.80;99.90;;;;;;5017676;28;20638;-86
2022/02/04 02:11:10;;;;;;;8.57;5.97;;;8.80;99.90;;;;;;5017919;28;20170;-87
2022/02/04 02:13:51;;;;;;;7.63;5.60;;;8.90;99.90;;;;;;5017298;28;20206;-88
2022/02/04 02:32:53;;;;;;;8.20;5.30;;;8.90;99.60;;;;;;5003498;28;20270;-87
2022/02/04 02:46:20;;;;;;;10.47;8.37;;;8.70;99.90;;;;;;5021748;28;20154;-89
2022/02/04 02:57:28;;;;;;;11.27;8.60;;;8.50;99.90;;;;;;5019504;28;20176;-88
2022/02/04 03:02:46;;;;;;;10.10;7.70;;;8.50;99.90;;;;;;5001087;28;20171;-86
2022/02/04 03:05:12;;;;;;;10.50;8.20;;;8.50;99.90;;;;;;5019881;28;20268;-86
2022/02/04 03:07:40;;;;;;;8.57;6.70;;;8.50;99.90;;;;;;5020481;28;20189;-87
2022/02/04 03:10:11;;;;;;;10.37;7.37;;;8.50;99.90;;;;;;5018014;28;20536;-89
2022/02/04 03:12:37;;;;;;;10.17;6.67;;;8.60;99.90;;;;;;5016702;28;20700;-88
2022/02/04 03:15:03;;;;;;;9.00;6.30;;;8.70;99.90;;;;;;5021313;28;20182;-91
2022/02/04 03:17:29;;;;;;;8.77;6.37;;;8.60;99.90;;;;;;5035217;28;20173;-88
2022/02/04 03:20:03;;;;;;;8.70;6.03;;;8.60;99.90;;;;;;5023675;28;20190;-88
2022/02/04 03:22:29;;;;;;;7.70;5.37;;;8.80;99.90;;;;;;5018213;28;20664;-90
2022/02/04 03:24:59;;;;;;;9.67;6.80;;;8.70;99.90;;;;;;5019430;28;20273;-86
2022/02/04 03:27:36;;;;;;;8.40;6.33;;;8.80;99.90;;;;;;5020007;28;20611;-87
2022/02/04 03:30:18;;;;;;;8.50;5.90;;;8.70;99.90;;;;;;5019714;28;20240;-87
2022/02/04 03:32:51;;;;;;;9.27;5.50;;;8.80;99.90;;;;;;5018031;28;20646;-87
2022/02/04 03:35:21;;;;;;;7.40;5.10;;;8.90;99.90;;;;;;5003045;28;20167;-87
2022/02/04 03:37:48;;;;;;;6.63;5.10;;;8.90;99.90;;;;;;5018773;28;20262;-88
2022/02/04 03:40:14;;;;;;;7.70;5.20;;;8.80;99.90;;;;;;5020014;28;20182;-89
2022/02/04 03:42:39;;;;;;;7.93;6.07;;;8.70;99.90;;;;;;5020766;28;20205;-87
2022/02/04 03:45:23;;;;;;;7.77;5.97;;;8.90;99.90;;;;;;5019844;28;20193;-87
2022/02/04 03:47:49;;;;;;;7.80;6.07;;;8.80;99.90;;;;;;5037191;28;20170;-86
2022/02/04 03:50:17;;;;;;;8.37;5.97;;;8.90;99.90;;;;;;5036568;28;20159;-88
2022/02/04 03:52:43;;;;;;;7.63;6.47;;;8.90;99.90;;;;;;5036897;28;20250;-87
2022/02/04 03:55:31;;;;;;;7.57;5.97;;;8.80;99.90;;;;;;5036307;28;20159;-88
2022/02/04 03:57:59;;;;;;;7.37;5.40;;;8.90;99.90;;;;;;5037477;28;20154;-85
2022/02/04 04:00:27;;;;;;;8.83;6.50;;;9.00;99.90;;;;;;5037921;28;20194;-88
2022/02/04 04:02:59;;;;;;;9.73;6.83;;;8.80;99.90;;;;;;5021723;28;20745;-87
2022/02/04 04:05:50;;;;;;;8.33;6.60;;;8.90;99.90;;;;;;5028222;28;20258;-88
2022/02/04 04:08:25;;;;;;;8.10;6.60;;;8.90;99.90;;;;;;5025032;28;20170;-90
2022/02/04 04:10:52;;;;;;;7.30;5.87;;;8.80;99.90;;;;;;5021428;28;20231;-89
2022/02/04 04:13:21;;;;;;;10.13;6.07;;;8.80;99.90;;;;;;5022334;28;20341;-89
2022/02/04 04:15:48;;;;;;;10.43;6.10;;;8.70;99.90;;;;;;5023624;28;20182;-89
2022/02/04 04:18:13;;;;;;;9.60;6.60;;;8.70;99.90;;;;;;5037718;28;20194;-88
2022/02/04 04:20:44;;;;;;;8.10;6.43;;;8.90;99.90;;;;;;5040429;28;20174;-88
2022/02/04 04:23:12;;;;;;;7.87;6.17;;;8.90;99.90;;;;;;5040296;28;20237;-89
2022/02/04 04:25:41;;;;;;;9.10;6.53;;;9.00;99.90;;;;;;5036280;28;20183;-88
2022/02/04 04:28:25;;;;;;;8.07;6.63;;;8.70;99.90;;;;;;5027181;28;20227;-88
2022/02/04 04:30:52;;;;;;;8.83;6.30;;;8.80;99.90;;;;;;5026049;28;20206;-89
2022/02/04 04:33:18;;;;;;;8.90;6.87;;;8.70;99.90;;;;;;5018925;28;20209;-88
2022/02/04 04:35:54;;;;;;;8.83;6.87;;;8.70;99.90;;;;;;5037542;28;20151;-86
2022/02/04 04:38:36;;;;;;;9.07;6.87;;;8.70;99.90;;;;;;5039488;28;20181;-86
2022/02/04 05:31:36;;;;;;;7.93;7.13;;;8.60;99.90;;;;;;4998441;28;20207;-88
2022/02/04 05:34:03;;;;;;;8.13;6.83;;;8.70;99.90;;;;;;5008772;28;20241;-89
2022/02/04 05:36:33;;;;;;;8.50;7.47;;;8.70;99.90;;;;;;5024174;28;20178;-89
2022/02/04 05:39:00;;;;;;;8.50;7.00;;;8.60;99.90;;;;;;5022406;28;20179;-87
2022/02/04 05:41:32;;;;;;;9.20;7.10;;;8.70;99.90;;;;;;5024857;28;20187;-88
2022/02/04 05:44:04;;;;;;;9.33;7.23;;;8.80;99.90;;;;;;5021217;28;20250;-87
2022/02/04 05:46:35;;;;;;;8.30;7.07;;;8.50;99.90;;;;;;5028536;28;20181;-89
2022/02/04 05:49:02;;;;;;;8.90;7.40;;;8.50;99.90;;;;;;5022639;28;20179;-89
2022/02/04 05:54:44;;;;;;;8.87;7.37;;;8.50;99.90;;;;;;5030459;28;20694;-89
2022/02/04 05:57:18;;;;;;;9.43;7.30;;;8.30;99.90;;;;;;5035351;28;20303;-88
2022/02/04 06:00:16;;;;;;;10.27;7.57;;;8.50;99.90;;;;;;5023839;28;20185;-88
2022/02/04 06:03:13;;;;;;;9.43;8.10;;;8.70;99.90;;;;;;5027528;28;20191;-87
2022/02/04 06:06:12;;;;;;;10.17;7.93;;;8.50;99.90;;;;;;5024099;28;20162;-88
2022/02/04 06:11:38;;;;;;;8.70;7.80;;;8.40;99.90;;;;;;5020618;28;20173;-88
2022/02/04 06:22:19;;;;;;;10.07;8.03;;;8.60;99.90;;;;;;5018961;28;20177;-90
2022/02/04 06:24:48;;;;;;;8.47;7.53;;;8.50;99.90;;;;;;5002803;28;20174;-88
2022/02/04 06:27:14;;;;;;;10.63;8.37;;;8.50;99.90;;;;;;5002306;28;20174;-87
2022/02/04 06:29:42;;;;;;;11.03;7.97;;;8.50;99.90;;;;;;5018709;28;20713;-86
2022/02/04 06:32:09;;;;;;;9.67;7.93;;;8.50;99.90;;;;;;5021206;28;20660;-86
2022/02/04 06:34:36;;;;;;;10.10;7.60;;;8.40;99.90;;;;;;5017887;28;20280;-88
2022/02/04 06:37:03;;;;;;;8.20;7.10;;;8.40;99.90;;;;;;5020867;28;20178;-86
2022/02/04 06:39:35;;;;;;;11.90;7.20;;;8.50;99.90;;;;;;5006428;28;20634;-87
2022/02/04 06:42:03;;;;;;;8.23;6.93;;;8.40;99.90;;;;;;5022830;28;20642;-89
2022/02/04 06:44:37;;;;;;;9.60;7.37;;;8.40;99.90;;;;;;5026402;28;20201;-86
2022/02/04 06:47:04;;;;;;;12.17;7.97;;;8.50;99.90;;;;;;5028079;28;20239;-86
2022/02/04 06:49:30;;;;;;;8.37;6.63;;;8.40;99.90;;;;;;5028667;28;20478;-86
2022/02/04 06:51:55;;;;;;;8.90;7.23;;;8.40;99.90;;;;;;5030490;28;20185;-87
2022/02/04 06:54:21;;;;;;;8.70;7.20;;;8.40;99.90;;;;;;5035023;28;20206;-88
2022/02/04 06:56:49;;;;;;;11.07;6.63;;;8.40;99.90;;;;;;5033316;28;20147;-88
2022/02/04 06:59:16;;;;;;;12.13;7.77;;;8.50;99.90;;;;;;5033619;28;20175;-86
2022/02/04 07:01:42;;;;;;;9.57;7.20;;;8.50;99.90;;;;;;5028779;28;20190;-87
2022/02/04 07:04:09;;;;;;;10.57;7.33;;;8.50;99.90;;;;;;5021833;28;20180;-87
2022/02/04 07:06:39;;;;;;;9.40;7.27;;;8.40;99.90;;;;;;5018469;28;20201;-87
2022/02/04 07:17:15;;;;;;;6.93;5.97;;;8.30;99.90;;;;;;5017570;28;20203;-86
2022/02/04 07:19:47;;;;;;;7.53;6.30;;;8.30;99.90;;;;;;5033153;28;20190;-86
2022/02/04 07:22:34;;;;;;;6.97;6.00;;;8.40;99.90;;;;;;5017515;28;20202;-86
2022/02/04 07:25:32;;;;;;;7.70;6.13;;;8.40;99.90;;;;;;5033463;28;20186;-88
2022/02/04 07:28:15;;;;;;;7.60;5.80;;;8.40;99.90;;;;;;5025757;28;20205;-87
2022/02/04 07:30:44;;;;;;;7.83;6.27;;;8.40;99.90;;;;;;5008092;28;20206;-88
2022/02/04 07:33:38;;;;;;;7.30;5.77;;;8.50;99.90;;;;;;5031094;28;20289;-91
2022/02/04 07:42:45;;;;;;;8.80;6.00;;;8.50;99.90;;;;;;5049888;28;20212;-94
2022/02/04 07:45:18;;;;;;;7.00;5.57;;;8.60;99.90;;;;;;5061364;28;20178;-87
2022/02/04 07:47:52;;;;;;;6.80;5.63;;;8.60;99.90;;;;;;5051302;28;20176;-90
2022/02/04 07:50:44;;;;;;;6.90;5.83;;;8.50;99.90;;;;;;5045917;28;20630;-89
2022/02/04 07:53:11;;;;;;;8.50;5.90;;;8.50;99.90;;;;;;5060218;28;20193;-89
2022/02/04 07:55:38;;;;;;;7.43;5.90;;;8.60;99.90;;;;;;5025488;28;20215;-87
2022/02/04 07:58:10;;;;;;;7.43;5.60;;;8.60;99.90;;;;;;5034988;28;20186;-91
2022/02/04 08:01:12;;;;;;;8.47;6.50;;;8.70;99.90;;;;;;5035510;28;20197;-91
2022/02/04 08:03:42;;;;;;;8.50;6.17;;;8.60;99.90;;;;;;5048036;28;20185;-90
2022/02/04 08:06:15;;;;;;;9.30;6.27;;;8.70;99.90;;;;;;5047553;28;20196;-88
2022/02/04 08:09:19;;;;;;;9.43;6.63;;;8.60;99.90;;;;;;5047588;28;20186;-88
2022/02/04 08:20:01;;;;;;;8.90;6.43;;;8.60;99.90;;;;;;5048649;28;20174;-92
2022/02/04 08:22:41;;;;;;;10.93;6.70;;;8.60;99.90;;;;;;5049365;28;20169;-89
2022/02/04 08:54:57;;;;;;;10.03;7.43;;;8.70;99.90;;;;;;5031562;28;20209;-89
2022/02/04 08:57:37;;;;;;;12.17;7.87;;;8.70;99.90;;;;;;5038634;28;20159;-89
2022/02/04 09:00:30;;;;;;;11.43;7.13;;;8.80;99.90;;;;;;5038864;28;20185;-90
2022/02/04 09:03:14;;;;;;;8.70;6.80;;;8.80;99.90;;;;;;5011885;28;20218;-88
2022/02/04 09:05:44;;;;;;;8.77;6.23;;;8.90;99.90;;;;;;5033669;28;20186;-87
2022/02/04 09:10:47;;;;;;;10.00;6.13;;;8.90;99.90;;;;;;5017499;28;20163;-89
2022/02/04 09:19:08;;;;;;;8.90;6.10;;;9.10;99.90;;;;;;5007422;28;20238;-90
2022/02/04 09:21:51;;;;;;;5.90;5.27;;;9.20;99.90;;;;;;5027039;28;20222;-91
2022/02/04 09:24:18;;;;;;;8.30;5.93;;;9.20;99.90;;;;;;5007528;28;20229;-88
2022/02/04 09:26:55;;;;;;;14.17;6.03;;;9.10;99.90;;;;;;5033502;28;20183;-90
2022/02/04 09:29:21;;;;;;;6.60;5.23;;;9.20;99.90;;;;;;5025610;28;20436;-90
2022/02/04 09:31:47;;;;;;;6.63;5.00;;;9.30;99.90;;;;;;5030926;28;20262;-89
2022/02/04 09:34:13;;;;;;;7.23;4.83;;;9.20;99.90;;;;;;5032708;28;20254;-90
2022/02/04 09:36:39;;;;;;;6.37;4.63;;;9.30;99.40;;;;;;5033474;28;20170;-89
2022/02/04 09:39:06;;;;;;;5.27;4.10;;;9.30;98.90;;;;;;5018158;28;20239;-91
2022/02/04 09:41:36;;;;;;;7.57;3.97;;;9.30;98.50;;;;;;5016829;28;20194;-87
2022/02/04 09:44:04;;;;;;;5.60;4.40;;;9.40;98.50;;;;;;5034770;28;20193;-89
2022/02/04 09:46:35;;;;;;;7.23;4.60;;;9.40;97.40;;;;;;5034961;28;20178;-88
2022/02/04 09:49:16;;;;;;;7.03;4.53;;;9.50;96.90;;;;;;5034209;28;20177;-91
2022/02/04 10:21:13;;;;;;;8.67;5.10;;;9.60;95.80;;;;;;5085220;23;20238;-90
2022/02/04 10:23:52;;;;;;;7.60;5.77;;;9.60;95.90;;;;;;5020929;28;20218;-93
2022/02/04 10:26:19;;;;;;;9.77;5.80;;;9.60;95.60;;;;;;5021190;28;20209;-91
2022/02/04 10:28:50;;;;;;;6.33;5.47;;;9.60;95.90;;;;;;5021602;28;20191;-90
2022/02/04 10:31:28;;;;;;;7.97;5.10;;;9.50;95.90;;;;;;5021249;28;20182;-91
2022/02/04 10:34:19;;;;;;;6.30;5.17;;;9.50;96.20;;;;;;5021406;28;20217;-89
2022/02/04 10:37:06;;;;;;;7.87;5.50;;;9.40;96.90;;;;;;5022317;28;20201;-91
2022/02/04 10:39:55;;;;;;;6.73;5.87;;;9.40;97.50;;;;;;5022551;28;20186;-88
2022/02/04 10:45:18;;;;;;;10.00;5.67;;;9.40;97.10;;;;;;5024762;28;20223;-92
2022/02/04 10:51:24;;;;;;;8.80;6.13;;;9.40;97.00;;;;;;5021215;28;20181;-89
2022/02/04 10:59:24;;;;;;;9.27;5.70;;;9.50;96.20;;;;;;5003139;28;20198;-92
2022/02/04 11:04:42;;;;;;;10.77;6.53;;;9.50;95.90;;;;;;5034112;28;20250;-91
2022/02/04 11:07:35;;;;;;;9.07;6.00;;;9.70;96.00;;;;;;5029076;28;20611;-93
2022/02/04 11:33:03;;;;;;;9.47;7.30;;;9.50;95.00;;;;;;5018331;28;20228;-93
2022/02/04 11:52:35;;;;;;;10.60;5.83;;;9.40;92.80;;;;;;5006890;28;20649;-91
2022/02/04 11:55:12;;;;;;;8.97;5.73;;;9.60;92.70;;;;;;5005278;28;20265;-96
2022/02/04 11:57:57;;;;;;;9.10;5.20;;;9.60;92.00;;;;;;5007862;28;20171;-91
2022/02/04 12:00:37;;;;;;;9.50;5.80;;;9.70;91.50;;;;;;5003533;28;20203;-94
2022/02/04 12:03:35;;;;;;;8.87;5.07;;;9.70;91.20;;;;;;5020383;28;20178;-94
2022/02/04 12:06:04;;;;;;;9.73;6.03;;;9.70;90.60;;;;;;5029635;28;20232;-91
2022/02/04 12:08:31;;;;;;;9.40;6.30;;;9.80;90.20;;;;;;5032757;28;20158;-90
2022/02/04 12:11:05;;;;;;;10.80;5.70;;;9.80;90.10;;;;;;5033209;28;20174;-92
2022/02/04 12:13:54;;;;;;;8.40;4.97;;;9.90;90.00;;;;;;5035750;28;20201;-90
2022/02/04 12:16:22;;;;;;;7.57;5.37;;;9.80;88.50;;;;;;5036745;28;20194;-91
2022/02/04 12:18:52;;;;;;;8.77;5.97;;;9.90;86.80;;;;;;5036048;28;20178;-91
2022/02/04 12:21:21;;;;;;;8.67;5.37;;;10.00;86.90;;;;;;5034503;28;20213;-89
2022/02/04 12:23:49;;;;;;;8.47;5.17;;;9.90;86.10;;;;;;5027940;28;20237;-89
2022/02/04 12:26:36;;;;;;;8.27;5.03;;;10.00;85.60;;;;;;5027556;28;20179;-89
2022/02/04 12:29:09;;;;;;;6.87;4.73;;;10.00;83.10;;;;;;5024092;28;20273;-90
2022/02/04 12:31:43;;;;;;;7.40;4.83;;;10.10;81.80;;;;;;5027862;28;20193;-89
2022/02/04 12:34:14;;;;;;;9.97;6.23;;;10.20;81.60;;;;;;5042285;28;20234;-89
2022/02/04 12:36:58;;;;;;;8.47;5.23;;;10.10;83.20;;;;;;5047477;28;20162;-90
2022/02/04 12:39:31;;;;;;;11.07;5.80;;;10.20;82.70;;;;;;5033388;28;20189;-92
2022/02/04 12:42:10;;;;;;;7.33;4.70;;;10.30;82.60;;;;;;5042606;28;20209;-91
2022/02/04 12:44:43;;;;;;;10.93;5.13;;;10.30;81.90;;;;;;5012588;28;20154;-89
2022/02/04 12:47:31;;;;;;;11.77;5.13;;;10.30;81.10;;;;;;5052147;28;20156;-88
2022/02/04 12:50:01;;;;;;;6.73;3.87;;;10.40;80.80;;;;;;5051287;28;20171;-92
2022/02/04 12:52:31;;;;;;;8.97;4.00;;;10.40;78.70;;;;;;5049240;28;20841;-89
2022/02/04 12:55:08;;;;;;;6.63;3.80;;;10.30;78.10;;;;;;5046966;28;20247;-91
2022/02/04 13:10:55;;;;;;;3.87;2.13;;;10.30;76.00;;;;;;5024235;28;20209;-89
2022/02/04 13:13:21;;;;;;;5.40;2.60;;;10.20;77.20;;;;;;5021339;28;20236;-89
2022/02/04 13:15:47;;;;;;;5.97;2.10;;;10.20;79.90;;;;;;5022204;28;20189;-90
2022/02/04 13:18:15;;;;;;;3.33;1.80;;;10.20;83.80;;;;;;5020247;28;20248;-91
2022/02/04 13:20:43;;;;;;;4.23;1.77;;;10.10;86.70;;;;;;5019147;28;20213;-88
2022/02/04 13:23:14;;;;;;;5.03;2.03;;;9.90;89.00;;;;;;5016104;28;20182;-87
2022/02/04 13:25:52;;;;;;;3.43;2.07;;;10.00;90.70;;;;;;4993073;28;20183;-89
2022/02/04 13:28:26;;;;;;;4.77;2.30;;;9.90;91.20;;;;;;5005673;28;20167;-88
2022/02/04 13:31:00;;;;;;;2.73;1.60;;;9.80;92.10;;;;;;5005416;28;20192;-88
2022/02/04 13:33:43;;;;;;;3.07;1.63;;;9.80;92.60;;;;;;5016315;28;20209;-90
2022/02/04 13:36:35;;;;;;;3.93;1.53;;;9.80;93.00;;;;;;5019434;28;20182;-90
2022/02/04 13:44:38;;;;;;;4.53;1.73;;;9.60;96.00;;;;;;5037706;28;20190;-88
2022/02/04 13:47:35;;;;;;;5.47;1.73;;;9.50;96.70;;;;;;5031406;28;20198;-87
2022/02/04 13:50:42;;;;;;;4.97;2.00;;;9.50;97.50;;;;;;5036561;28;20201;-88
2022/02/04 13:53:33;;;;;;;4.47;1.83;;;9.50;98.70;;;;;;5034621;28;20197;-87
2022/02/04 14:00:11;;;;;;;4.77;2.20;;;9.50;99.90;;;;;;5012155;28;20175;-88
2022/02/04 14:02:20;;;;;;;4.50;1.50;;;9.30;99.90;;;;;;5032094;23;20241;-89
2022/02/04 14:05:02;;;;;;;4.40;1.63;;;9.10;99.90;;;;;;5036880;28;20169;-88
2022/02/04 14:07:51;;;;;;;4.43;2.20;;;9.20;99.90;;;;;;5053490;28;20261;-88
2022/02/04 14:10:33;;;;;;;6.67;1.70;;;9.20;99.90;;;;;;5053300;28;20162;-88
2022/02/04 14:13:05;;;;;;;5.13;2.00;;;9.10;99.90;;;;;;5030425;28;20727;-87
2022/02/04 14:15:35;;;;;;;3.83;1.93;;;9.00;99.90;;;;;;5052768;28;20205;-88
2022/02/04 14:18:11;;;;;;;3.60;1.70;;;9.00;99.90;;;;;;5053567;28;20182;-89
2022/02/04 14:20:41;;;;;;;3.63;1.90;;;9.00;99.90;;;;;;5027921;28;20206;-88
2022/02/04 14:23:10;;;;;;;3.67;1.80;;;8.80;99.90;;;;;;5023751;28;20193;-89
2022/02/04 14:26:10;;;;;;;9.03;2.50;;;9.00;99.90;;;;;;5022172;28;20233;-88
2022/02/04 14:28:47;;;;;;;2.80;1.70;;;8.90;99.90;;;;;;5019462;28;20198;-91
2022/02/04 14:31:16;;;;;;;6.60;2.20;;;8.90;99.90;;;;;;5010234;28;20190;-92
2022/02/04 14:36:49;;;;;;;3.70;2.00;;;8.40;99.90;;;;;;5000609;28;20595;-91
2022/02/04 15:01:24;;;;;;;2.77;0.60;;;6.40;99.90;;;;;;4997492;28;20169;-87
2022/02/04 15:06:29;;;;;;;2.20;0.80;;;6.30;99.90;;;;;;5000224;28;20225;-89
2022/02/04 15:08:55;;;;;;;1.73;1.00;;;6.20;99.90;;;;;;5014625;28;20229;-89
2022/02/04 15:11:29;;;;;;;2.63;0.90;;;6.20;99.90;;;;;;5016931;28;20244;-88
2022/02/04 15:13:56;;;;;;;1.57;0.97;;;6.30;99.90;;;;;;5019355;28;20223;-89
2022/02/04 15:16:22;;;;;;;2.07;1.20;;;6.20;99.90;;;;;;5017294;28;20285;-86
2022/02/04 15:18:47;;;;;;;3.17;1.03;;;6.30;99.90;;;;;;4999046;28;20226;-88
2022/02/04 15:21:17;;;;;;;4.03;1.40;;;6.30;99.90;;;;;;5016415;28;20257;-90
2022/02/04 15:23:47;;;;;;;1.50;1.00;;;6.30;99.90;;;;;;5016512;28;20171;-90
2022/02/04 15:26:15;;;;;;;2.83;1.07;;;6.20;99.90;;;;;;5014550;28;20194;-89
2022/02/04 15:33:50;;;;;;;1.50;1.10;;;6.20;99.90;;;;;;5003246;28;20210;-86
2022/02/04 15:36:29;;;;;;;2.20;1.27;;;6.20;99.90;;;;;;5003947;28;20175;-88
2022/02/04 15:39:10;;;;;;;1.60;1.10;;;6.20;99.90;;;;;;5005401;28;20213;-87
2022/02/04 15:41:38;;;;;;;3.73;1.40;;;6.20;99.90;;;;;;5024674;28;20171;-88
2022/02/04 15:44:15;;;;;;;2.80;1.23;;;6.20;99.90;;;;;;5021719;28;20639;-87
2022/02/04 16:05:30;;;;;;;4.07;1.00;;;6.20;99.30;;;;;;5001835;28;20269;-92
2022/02/04 16:07:57;;;;;;;4.57;2.00;;;6.20;98.90;;;;;;5018098;28;20182;-91
2022/02/04 16:15:53;;;;;;;7.93;2.27;;;6.20;99.00;;;;;;5001837;28;20195;-90
2022/02/04 16:18:24;;;;;;;6.50;1.80;;;6.20;98.40;;;;;;5011943;28;20201;-90
2022/02/04 16:24:16;;;;;;;5.63;1.60;;;6.10;98.10;;;;;;4946522;29;20620;-90
2022/02/04 16:26:55;;;;;;;6.13;1.70;;;6.20;97.90;;;;;;4932827;29;20177;-91
2022/02/04 16:29:22;;;;;;;5.83;2.23;;;6.10;97.70;;;;;;4990752;28;20193;-90
2022/02/04 16:31:53;;;;;;;5.17;2.40;;;6.10;97.80;;;;;;5018878;28;20222;-87
2022/02/04 16:34:23;;;;;;;7.63;2.50;;;6.10;97.90;;;;;;5006064;28;20241;-89
2022/02/04 16:36:50;;;;;;;5.13;2.27;;;6.10;98.20;;;;;;5007458;28;20182;-88
2022/02/04 16:39:23;;;;;;;7.07;3.13;;;6.10;98.20;;;;;;5026519;28;20218;-89
2022/02/04 16:42:02;;;;;;;5.20;2.37;;;6.10;98.00;;;;;;5005930;28;20168;-89
2022/02/04 16:44:33;;;;;;;7.23;2.53;;;6.20;97.60;;;;;;5030209;28;20254;-89
2022/02/04 16:47:01;;;;;;;4.97;1.97;;;6.00;96.80;;;;;;5020554;28;20159;-87
2022/02/04 16:49:31;;;;;;;4.73;1.77;;;6.00;95.70;;;;;;5033770;28;20227;-89
2022/02/04 16:52:11;;;;;;;;;;;;;;;;;;;;;
2022/02/04 16:54:38;;;;;;;6.63;2.07;;;5.70;97.10;;;;;;5018235;28;20269;-89
2022/02/04 16:57:06;;;;;;;10.27;2.90;;;5.60;97.80;;;;;;5033316;28;20171;-93
2022/02/04 16:59:35;;;;;;;8.97;2.70;;;5.70;98.30;;;;;;5015942;28;20201;-88
2022/02/04 17:02:06;;;;;;;9.30;2.60;;;5.70;98.40;;;;;;5028108;28;20241;-88
2022/02/04 17:04:33;;;;;;;6.07;2.13;;;5.80;97.60;;;;;;5006409;28;20198;-87
2022/02/04 17:07:03;;;;;;;9.90;2.43;;;5.90;97.60;;;;;;5005983;28;20251;-87
2022/02/04 17:09:37;;;;;;;8.20;3.20;;;6.00;97.70;;;;;;5021675;28;20155;-88
2022/02/04 17:12:06;;;;;;;5.33;2.70;;;6.00;97.90;;;;;;5018350;28;20178;-87
2022/02/04 17:14:34;;;;;;;8.30;3.07;;;6.10;98.30;;;;;;5018510;28;20239;-86
2022/02/04 17:17:07;;;;;;;7.33;2.60;;;6.10;98.30;;;;;;5020251;28;20171;-90
2022/02/04 17:19:47;;;;;;;8.87;3.17;;;6.10;98.20;;;;;;5020685;28;20202;-89
2022/02/04 17:22:19;;;;;;;7.17;2.60;;;6.20;98.20;;;;;;5024039;28;20174;-87
2022/02/04 17:24:48;;;;;;;10.80;2.57;;;6.20;98.00;;;;;;5026623;28;20178;-92
2022/02/04 17:27:25;;;;;;;9.67;3.10;;;6.20;98.00;;;;;;5024347;28;20186;-90
2022/02/04 17:29:50;;;;;;;11.27;3.30;;;6.20;98.00;;;;;;5021997;28;20179;-87
2022/02/04 17:32:19;;;;;;;6.67;2.17;;;6.00;97.70;;;;;;5004420;28;20650;-88
2022/02/04 17:34:48;;;;;;;11.37;3.20;;;6.10;97.50;;;;;;5001091;28;20222;-90
2022/02/04 17:37:14;;;;;;;8.27;2.43;;;6.10;97.70;;;;;;5017335;28;20167;-91
2022/02/04 17:39:41;;;;;;;7.50;2.73;;;6.10;97.50;;;;;;4999910;28;20257;-90
2022/02/04 17:42:09;;;;;;;9.50;3.03;;;6.10;97.30;;;;;;5019432;28;20634;-88
2022/02/04 17:44:56;;;;;;;7.10;2.77;;;6.10;97.00;;;;;;5006836;28;20179;-86
2022/02/04 17:47:26;;;;;;;9.40;3.47;;;6.20;97.10;;;;;;5021115;28;20194;-87
2022/02/04 17:53:02;;;;;;;9.20;3.10;;;6.10;95.80;;;;;;5002314;28;20274;-89
2022/02/04 17:55:23;;;;;;;5.43;2.57;;;6.10;95.50;;;;;;4999856;28;20218;-87
2022/02/04 17:57:55;;;;;;;10.23;2.90;;;6.10;95.30;;;;;;5003002;28;20182;-88
2022/02/04 18:00:56;;;;;;;8.00;2.57;;;6.20;95.20;;;;;;5029491;28;20175;-85
2022/02/04 18:06:26;;;;;;;9.60;3.10;;;6.10;94.90;;;;;;5018039;28;20191;-88
2022/02/04 18:08:51;;;;;;;7.40;3.10;;;6.10;95.40;;;;;;5030480;28;20314;-88
2022/02/04 18:11:17;;;;;;;7.87;3.63;;;6.10;95.30;;;;;;5024481;28;20424;-87
2022/02/04 18:13:59;;;;;;;11.53;3.13;;;6.10;95.50;;;;;;5012731;28;20186;-89
2022/02/04 18:16:37;;;;;;;8.67;3.57;;;6.20;95.10;;;;;;5016471;28;20189;-86
2022/02/04 18:19:17;;;;;;;10.30;2.87;;;6.10;94.50;;;;;;4992164;28;20206;-87
2022/02/04 18:21:43;;;;;;;8.77;3.03;;;6.20;94.00;;;;;;5014512;28;20274;-87
2022/02/04 18:24:09;;;;;;;11.63;3.33;;;6.10;93.90;;;;;;5013462;28;20215;-86
2022/02/04 18:26:35;;;;;;;8.97;2.97;;;6.10;94.10;;;;;;5014156;28;20190;-86
2022/02/04 18:29:04;;;;;;;7.23;2.77;;;6.20;93.70;;;;;;5014893;28;20172;-85
2022/02/04 18:31:32;;;;;;;8.10;2.67;;;6.10;93.60;;;;;;4998468;28;20199;-87
2022/02/04 18:34:01;;;;;;;7.23;2.90;;;6.20;93.20;;;;;;5009041;28;20211;-86
2022/02/04 18:36:28;;;;;;;10.13;3.20;;;6.20;92.60;;;;;;5014412;28;20233;-89
2022/02/04 18:44:32;;;;;;;9.87;3.37;;;6.20;92.40;;;;;;5001948;28;20608;-86
2022/02/04 18:47:08;;;;;;;15.97;3.43;;;6.30;92.70;;;;;;5018415;28;20365;-86
2022/02/04 18:49:48;;;;;;;9.93;3.60;;;6.20;92.60;;;;;;5018641;28;20193;-87
2022/02/04 18:53:33;;;;;;;8.67;3.13;;;6.10;92.90;;;;;;5023739;28;20193;-87
2022/02/04 18:57:54;;;;;;;12.73;3.77;;;6.00;94.00;;;;;;5012819;28;20171;-87
2022/02/04 19:00:21;;;;;;;7.50;3.40;;;6.00;94.20;;;;;;5031408;28;20178;-91
2022/02/04 19:02:51;;;;;;;11.13;3.80;;;6.00;94.30;;;;;;5027146;28;20199;-88
2022/02/04 19:05:24;;;;;;;8.30;3.63;;;5.90;94.10;;;;;;5020666;28;20191;-84
2022/02/04 19:08:07;;;;;;;9.47;3.70;;;6.00;94.70;;;;;;5004598;28;20198;-88
2022/02/04 19:10:37;;;;;;;9.63;3.87;;;5.80;94.60;;;;;;5023849;28;20171;-88
2022/02/04 19:13:16;;;;;;;8.50;3.27;;;5.90;94.70;;;;;;5007060;28;20226;-88
2022/02/04 19:16:00;;;;;;;9.53;3.33;;;5.90;94.90;;;;;;5003266;28;20187;-88
2022/02/04 19:21:19;;;;;;;10.27;3.33;;;5.70;96.00;;;;;;5005786;28;20171;-91
2022/02/04 19:24:10;;;;;;;9.30;3.67;;;5.70;96.10;;;;;;5013024;28;20179;-88
2022/02/04 19:26:37;;;;;;;9.90;4.17;;;5.60;96.80;;;;;;5003566;28;20266;-86
2022/02/04 19:29:05;;;;;;;9.27;3.70;;;5.60;97.00;;;;;;5028789;28;20167;-87
2022/02/04 19:31:38;;;;;;;7.80;3.70;;;5.70;97.40;;;;;;5033994;28;20189;-87
2022/02/04 19:34:06;;;;;;;8.60;3.63;;;5.60;97.90;;;;;;5036467;28;20225;-90
2022/02/04 19:36:34;;;;;;;8.37;4.57;;;5.70;97.70;;;;;;5020701;28;20190;-85
2022/02/04 19:39:11;;;;;;;10.10;3.50;;;5.70;97.70;;;;;;5037008;28;20155;-89
2022/02/04 19:41:47;;;;;;;10.33;4.20;;;5.80;97.60;;;;;;5035854;28;20174;-91
2022/02/04 19:44:16;;;;;;;11.50;3.83;;;5.70;97.70;;;;;;5014111;28;20175;-88
2022/02/04 19:46:48;;;;;;;8.80;4.50;;;5.70;97.80;;;;;;5031400;28;20183;-90
2022/02/04 19:49:21;;;;;;;10.33;4.30;;;5.80;98.00;;;;;;5026689;28;20255;-86
2022/02/04 19:51:57;;;;;;;12.73;4.03;;;5.90;98.00;;;;;;5009527;28;20170;-87
2022/02/04 20:24:49;;;;;;;7.90;3.70;;;6.00;96.70;;;;;;5010785;28;20189;-88
2022/02/04 20:27:15;;;;;;;7.03;2.73;;;6.00;96.90;;;;;;5008650;28;20266;-89
2022/02/04 20:29:51;;;;;;;10.60;3.40;;;6.00;96.80;;;;;;5009757;28;20536;-87
2022/02/04 20:32:17;;;;;;;8.70;3.57;;;6.10;96.30;;;;;;5025342;28;20186;-88
2022/02/04 20:34:44;;;;;;;9.43;4.00;;;6.10;95.80;;;;;;5003486;28;20734;-86
2022/02/04 20:37:10;;;;;;;9.67;3.73;;;6.10;95.80;;;;;;4992290;28;20191;-87